Miami Beach, Washington
Current Conditions -  °F | °C
As of 6:35 AM on Wednesday 22 Oct 2014 (Local Time) from KPWT Reporting Station
Overcast Overcast  
Wind Chill: 54°   Ceiling: 600
Heat Index: 54°   Visibility: 10mi
Dew Point: 54°   Wind: 17mph
Humidity: 100%   Direction: 190°S
Pressure: 29.7"   Gusts: 24mph
Location:  47.6282°N, 122.837°W
Report Text: KPWT 221335Z AUTO 19015G21KT 10SM BKN006 OVC013 12/12 A2970 RMK AO1 P0003
Loading
Personal Weather Stations






























Interactive Weather Map
Tropical Storm Tracking
New forecast layout! Learn more

10-Day Weather Forecast

Advertisements
Track Severe Weather on mobile